Time;durP1;ratioP1;P1;durP2;ratioP2;P2;SDS_P1;SDS_P2;PMS_P1;PMS_P2;Temp;Humidity;BMP_temperature;BMP_pressure;BME280_temperature;BME280_humidity;BME280_pressure;Samples;Min_cycle;Max_cycle;Signal;HPM_P1;HPM_P2
2023/01/21 00:00:44;;;;;;;4.45;2.55;;;;;;;0.71;90.40;95560.56;4326572;32;20221;-63
2023/01/21 00:03:11;;;;;;;2.75;2.65;;;;;;;0.80;90.88;95567.06;4321545;32;20190;-62
2023/01/21 00:05:38;;;;;;;2.42;2.33;;;;;;;0.77;90.94;95567.50;4300814;32;20206;-62
2023/01/21 00:08:04;;;;;;;2.90;2.70;;;;;;;0.78;90.69;95564.66;4301096;32;20243;-62
2023/01/21 00:10:29;;;;;;;3.23;2.93;;;;;;;0.85;90.59;95565.34;4314573;33;20186;-63
2023/01/21 00:12:56;;;;;;;2.60;2.50;;;;;;;1.00;90.28;95568.31;4327366;32;20220;-62
2023/01/21 00:15:22;;;;;;;2.08;1.98;;;;;;;0.95;89.26;95570.00;4300312;33;20206;-62
2023/01/21 00:17:47;;;;;;;2.47;2.30;;;;;;;1.01;90.12;95574.31;4288490;32;21371;-62
2023/01/21 00:20:16;;;;;;;1.35;1.30;;;;;;;0.95;89.58;95570.00;4332234;32;20193;-61
2023/01/21 00:22:43;;;;;;;3.22;2.92;;;;;;;0.77;89.50;95563.06;4337663;33;20228;-61
2023/01/21 00:25:09;;;;;;;1.12;1.12;;;;;;;0.77;89.48;95567.50;4308570;32;20177;-62
2023/01/21 00:27:34;;;;;;;2.97;2.67;;;;;;;0.61;90.94;95569.75;4321794;32;20232;-62
2023/01/21 00:30:00;;;;;;;1.67;1.67;;;;;;;0.54;90.86;95570.88;4319468;32;20212;-62
2023/01/21 00:32:25;;;;;;;1.63;1.63;;;;;;;0.57;90.80;95567.81;4315368;33;20220;-62
2023/01/21 00:34:53;;;;;;;1.47;1.47;;;;;;;0.52;90.92;95565.87;4316054;32;20209;-62
2023/01/21 00:37:19;;;;;;;2.00;1.35;;;;;;;0.71;90.36;95568.38;4302967;32;20241;-61
2023/01/21 00:39:44;;;;;;;1.43;1.43;;;;;;;0.49;90.26;95571.53;4288818;32;20194;-62
2023/01/21 00:42:11;;;;;;;3.03;2.83;;;;;;;0.42;90.68;95570.81;4290987;32;20202;-61
2023/01/21 00:44:37;;;;;;;2.08;2.03;;;;;;;0.32;91.21;95576.59;4327898;32;20265;-61
2023/01/21 00:47:03;;;;;;;2.07;1.97;;;;;;;0.37;90.55;95580.34;4310807;32;20198;-62
2023/01/21 00:49:31;;;;;;;2.20;2.10;;;;;;;0.59;90.36;95571.78;4314430;33;20224;-62
2023/01/21 00:51:58;;;;;;;2.53;2.25;;;;;;;0.43;90.28;95585.47;4313280;32;20224;-61
2023/01/21 00:54:23;;;;;;;2.05;1.95;;;;;;;0.47;91.10;95584.00;4328498;32;20218;-61
2023/01/21 00:56:49;;;;;;;2.63;1.90;;;;;;;0.60;90.37;95578.59;4305221;32;20232;-62
2023/01/21 00:59:14;;;;;;;4.73;1.43;;;;;;;0.61;90.25;95587.22;4320245;32;20218;-61
2023/01/21 01:01:41;;;;;;;3.07;2.90;;;;;;;0.45;90.75;95585.25;4296760;32;20198;-62
2023/01/21 01:04:10;;;;;;;2.65;2.53;;;;;;;0.48;90.49;95588.19;4320227;32;20293;-62
2023/01/21 01:06:38;;;;;;;2.22;2.12;;;;;;;0.52;90.00;95591.97;4300272;32;20256;-62
2023/01/21 01:09:04;;;;;;;2.90;2.80;;;;;;;0.42;90.80;95596.91;4310857;32;20204;-62
2023/01/21 01:11:31;;;;;;;2.67;2.10;;;;;;;0.34;91.10;95592.03;4312777;33;20194;-62
2023/01/21 01:13:59;;;;;;;3.47;3.17;;;;;;;0.31;91.58;95593.25;4317892;33;20206;-61
2023/01/21 01:16:27;;;;;;;2.08;1.48;;;;;;;0.33;90.71;95593.03;4313189;32;20245;-61
2023/01/21 01:18:54;;;;;;;3.08;2.78;;;;;;;0.36;90.96;95594.41;4307839;33;20197;-61
2023/01/21 01:21:20;;;;;;;1.83;1.73;;;;;;;0.31;90.21;95597.69;4325798;33;20235;-62
2023/01/21 01:23:47;;;;;;;2.72;2.42;;;;;;;0.36;90.64;95592.59;4301332;33;20220;-61
2023/01/21 01:26:16;;;;;;;1.60;1.60;;;;;;;0.22;91.21;95601.63;4308447;33;20185;-62
2023/01/21 01:28:42;;;;;;;1.92;1.83;;;;;;;0.35;91.37;95591.00;4305273;32;20222;-62
2023/01/21 01:31:13;;;;;;;3.33;3.03;;;;;;;0.27;91.68;95597.31;4317920;32;20260;-62
2023/01/21 01:33:41;;;;;;;2.65;2.55;;;;;;;0.43;91.33;95603.72;4305627;32;20281;-62
2023/01/21 01:36:19;;;;;;;4.07;3.87;;;;;;;0.54;90.22;95605.59;4316227;33;20253;-62
2023/01/21 01:38:46;;;;;;;3.78;3.47;;;;;;;0.46;90.07;95608.50;4293302;33;20200;-62
2023/01/21 01:41:29;;;;;;;1.58;1.58;;;;;;;0.23;91.20;95603.19;4311029;32;20231;-62
2023/01/21 01:44:04;;;;;;;2.15;2.05;;;;;;;0.31;91.71;95600.28;4314709;33;20193;-62
2023/01/21 01:46:33;;;;;;;2.35;2.25;;;;;;;0.23;91.27;95604.00;4312359;33;20224;-62
2023/01/21 01:49:01;;;;;;;2.50;2.37;;;;;;;0.35;90.97;95604.06;4303211;33;20198;-66
2023/01/21 01:52:00;;;;;;;2.03;1.95;;;;;;;0.43;90.44;95611.56;4298026;33;20194;-62
2023/01/21 01:54:31;;;;;;;2.75;2.55;;;;;;;0.49;90.38;95602.84;4311678;32;20237;-62
2023/01/21 01:57:01;;;;;;;5.53;5.12;;;;;;;0.48;90.17;95611.69;4304121;33;20232;-62
2023/01/21 01:59:29;;;;;;;3.45;2.62;;;;;;;0.32;89.98;95607.91;4299981;33;20199;-61
2023/01/21 02:01:59;;;;;;;3.42;3.25;;;;;;;0.15;90.82;95609.53;4313474;33;20209;-61
2023/01/21 02:04:27;;;;;;;2.28;2.08;;;;;;;0.12;91.30;95612.59;4314438;33;20207;-62
2023/01/21 02:06:56;;;;;;;2.45;2.40;;;;;;;0.24;90.73;95608.19;4303523;32;20265;-62
2023/01/21 02:09:26;;;;;;;2.33;2.22;;;;;;;0.20;90.77;95606.28;4328937;32;20235;-62
2023/01/21 02:11:54;;;;;;;3.65;3.50;;;;;;;0.09;91.20;95607.00;4286196;33;20366;-62
2023/01/21 02:14:21;;;;;;;1.12;1.10;;;;;;;0.20;91.51;95608.88;4300321;33;20308;-62
2023/01/21 02:17:11;;;;;;;2.58;2.47;;;;;;;0.24;90.66;95616.03;4316124;33;20210;-62
2023/01/21 02:20:10;;;;;;;3.00;2.90;;;;;;;0.09;90.95;95612.22;4303703;32;20254;-63
2023/01/21 02:22:48;;;;;;;3.22;3.03;;;;;;;0.16;90.77;95608.53;4287843;33;20201;-62
2023/01/21 02:25:43;;;;;;;2.58;2.47;;;;;;;0.28;90.98;95603.34;4305030;32;20216;-62
2023/01/21 02:28:31;;;;;;;2.72;2.58;;;;;;;0.33;90.66;95608.69;4302397;33;20216;-62
2023/01/21 02:31:26;;;;;;;4.20;4.00;;;;;;;0.41;90.47;95608.41;4291975;33;20210;-64
2023/01/21 02:34:37;;;;;;;2.85;2.65;;;;;;;0.22;90.66;95606.81;4316862;32;20201;-62
2023/01/21 02:37:13;;;;;;;2.45;2.25;;;;;;;0.43;89.70;95606.34;4296056;33;20292;-62
2023/01/21 02:40:23;;;;;;;2.25;2.15;;;;;;;0.31;89.97;95610.72;4321231;32;20263;-62
2023/01/21 02:43:02;;;;;;;1.83;1.73;;;;;;;0.11;90.43;95612.81;4302854;33;20296;-62
2023/01/21 02:45:52;;;;;;;2.45;1.48;;;;;;;0.20;90.73;95607.06;4321452;32;20193;-62
2023/01/21 02:48:30;;;;;;;1.00;0.98;;;;;;;0.35;90.24;95606.66;4326070;32;20240;-62
2023/01/21 02:50:58;;;;;;;2.42;2.33;;;;;;;0.46;89.96;95618.13;4312969;32;20213;-62
2023/01/21 02:53:33;;;;;;;1.95;1.85;;;;;;;0.39;89.09;95615.66;4285410;33;20213;-62
2023/01/21 02:56:10;;;;;;;1.90;1.90;;;;;;;0.30;89.81;95617.75;4308591;33;20181;-64
2023/01/21 02:58:45;;;;;;;2.00;1.90;;;;;;;0.29;90.09;95617.97;4303464;33;20267;-62
2023/01/21 03:01:16;;;;;;;1.42;1.30;;;;;;;0.09;90.84;95618.25;4283139;33;20202;-62
2023/01/21 03:04:06;;;;;;;2.87;2.75;;;;;;;0.11;90.92;95616.22;4283618;33;20226;-62
2023/01/21 03:06:56;;;;;;;1.83;1.80;;;;;;;0.03;91.22;95613.09;4312117;33;20244;-62
2023/01/21 03:09:33;;;;;;;4.00;3.67;;;;;;;0.14;91.28;95614.97;4296105;33;20194;-62
2023/01/21 03:12:02;;;;;;;2.72;2.62;;;;;;;-0.02;91.67;95617.19;4322806;32;20216;-64
2023/01/21 03:17:50;;;;;;;2.25;2.10;;;;;;;0.04;92.26;95604.25;4302835;33;20209;-62
2023/01/21 03:20:33;;;;;;;2.55;2.45;;;;;;;0.23;91.28;95611.03;4281978;33;20190;-61
2023/01/21 03:23:09;;;;;;;1.52;1.42;;;;;;;0.06;91.38;95610.06;4303863;33;20190;-62
2023/01/21 03:25:36;;;;;;;1.58;1.58;;;;;;;-0.01;91.64;95616.16;4294130;33;20201;-62
2023/01/21 03:28:08;;;;;;;3.58;3.37;;;;;;;0.06;91.44;95610.84;4318288;33;20186;-64
2023/01/21 03:30:35;;;;;;;1.77;1.77;;;;;;;0.04;91.26;95609.47;4327474;32;20200;-62
2023/01/21 03:33:04;;;;;;;2.28;2.17;;;;;;;-0.06;91.54;95605.59;4327245;33;20195;-62
2023/01/21 03:35:34;;;;;;;2.12;2.00;;;;;;;0.05;91.44;95598.03;4304751;32;20232;-63
2023/01/21 03:38:02;;;;;;;2.97;2.72;;;;;;;-0.02;92.42;95601.53;4317094;32;20216;-63
2023/01/21 03:40:36;;;;;;;1.83;1.73;;;;;;;0.14;91.41;95604.53;4294772;33;20196;-62
2023/01/21 03:43:02;;;;;;;2.05;1.95;;;;;;;0.08;91.09;95595.00;4307143;33;20240;-63
2023/01/21 03:45:55;;;;;;;2.20;2.10;;;;;;;0.12;91.30;95596.94;4296033;33;20280;-62
2023/01/21 03:48:51;;;;;;;2.53;1.90;;;;;;;0.14;91.43;95599.31;4281734;33;20273;-62
2023/01/21 03:51:36;;;;;;;2.17;1.00;;;;;;;0.21;91.37;95592.19;4307874;32;20197;-62
2023/01/21 03:54:01;;;;;;;2.85;2.65;;;;;;;0.06;91.38;95583.97;4323149;32;20216;-62
2023/01/21 03:56:27;;;;;;;6.90;2.13;;;;;;;0.06;91.91;95583.97;4294370;33;20321;-62
2023/01/21 03:58:53;;;;;;;2.70;2.50;;;;;;;0.20;91.18;95598.44;4269070;33;20197;-64
2023/01/21 04:01:18;;;;;;;2.93;2.77;;;;;;;0.11;90.92;95595.34;4281276;33;23918;-62
2023/01/21 04:03:45;;;;;;;2.75;2.50;;;;;;;0.08;92.03;95593.19;4317705;33;20181;-62
2023/01/21 04:06:30;;;;;;;2.00;1.90;;;;;;;0.17;91.95;95591.06;4312323;33;20184;-62
2023/01/21 04:08:57;;;;;;;1.15;1.15;;;;;;;0.14;91.54;95599.31;4312856;32;20200;-62
2023/01/21 04:11:23;;;;;;;2.60;2.33;;;;;;;0.08;91.91;95597.59;4299528;32;20194;-62
2023/01/21 04:13:49;;;;;;;2.07;1.97;;;;;;;-0.04;92.15;95592.34;4252056;33;20273;-61
2023/01/21 04:16:15;;;;;;;1.40;1.40;;;;;;;0.05;92.66;95590.22;4311554;32;20246;-61
2023/01/21 04:18:41;;;;;;;2.08;1.98;;;;;;;-0.01;92.54;95592.72;4321402;32;20212;-61
2023/01/21 04:21:07;;;;;;;4.45;2.78;;;;;;;0.08;92.21;95601.00;4317058;32;20311;-62
2023/01/21 04:23:33;;;;;;;2.13;2.13;;;;;;;0.11;92.08;95597.16;4320343;32;20229;-62
2023/01/21 04:26:00;;;;;;;2.83;2.08;;;;;;;0.10;91.89;95598.97;4306583;33;20216;-66
2023/01/21 04:28:27;;;;;;;2.12;2.03;;;;;;;-0.03;92.31;95599.16;4297554;33;20261;-61
2023/01/21 04:30:54;;;;;;;2.08;1.98;;;;;;;0.14;91.83;95601.94;4316274;32;20197;-62
2023/01/21 04:33:19;;;;;;;3.12;3.03;;;;;;;0.11;91.58;95599.75;4290882;32;20261;-62
2023/01/21 04:35:46;;;;;;;2.50;2.40;;;;;;;-0.08;92.06;95599.81;4314828;32;20239;-62
2023/01/21 04:38:14;;;;;;;1.87;1.77;;;;;;;0.10;91.30;95611.22;4326552;32;20200;-62
2023/01/21 04:40:42;;;;;;;1.90;1.80;;;;;;;-0.06;91.65;95603.00;4316716;32;20186;-62
2023/01/21 04:43:08;;;;;;;2.08;1.98;;;;;;;0.00;91.68;95602.09;4319742;32;20185;-62
2023/01/21 04:45:34;;;;;;;3.57;1.50;;;;;;;0.08;91.22;95601.00;4316653;32;20232;-62
2023/01/21 04:48:00;;;;;;;3.42;2.58;;;;;;;0.10;91.21;95608.59;4306222;32;20241;-62
2023/01/21 04:50:26;;;;;;;1.37;1.37;;;;;;;-0.06;91.56;95605.59;4310956;32;20205;-62
2023/01/21 04:52:53;;;;;;;1.80;1.80;;;;;;;0.03;91.27;95605.28;4272774;32;20192;-62
2023/01/21 04:55:19;;;;;;;2.70;2.60;;;;;;;0.08;91.65;95615.84;4332962;32;20200;-62
2023/01/21 04:57:45;;;;;;;2.28;2.20;;;;;;;-0.06;91.44;95604.81;4338133;32;20182;-62
2023/01/21 05:00:11;;;;;;;5.93;3.97;;;;;;;0.06;91.72;95608.25;4337133;32;20181;-62
2023/01/21 05:02:36;;;;;;;3.73;3.37;;;;;;;0.09;91.47;95609.63;4322877;32;20231;-63
2023/01/21 05:05:01;;;;;;;2.50;2.40;;;;;;;0.07;91.21;95617.66;4304100;32;20229;-63
2023/01/21 05:07:27;;;;;;;3.03;2.83;;;;;;;0.20;91.38;95619.31;4306130;32;20213;-63
2023/01/21 05:09:52;;;;;;;2.30;2.20;;;;;;;0.23;91.16;95618.84;4310708;32;20410;-62
2023/01/21 05:12:18;;;;;;;3.07;2.63;;;;;;;0.01;91.59;95621.13;4309444;32;20181;-62
2023/01/21 05:14:45;;;;;;;2.22;2.12;;;;;;;0.18;90.11;95613.53;4324648;32;20197;-62
2023/01/21 05:17:11;;;;;;;7.32;3.58;;;;;;;0.04;90.31;95615.50;4341499;32;20173;-62
2023/01/21 05:19:36;;;;;;;2.17;2.03;;;;;;;0.10;90.19;95616.44;4300542;33;20386;-62
2023/01/21 05:22:02;;;;;;;2.67;2.57;;;;;;;0.17;89.49;95609.31;4344575;32;20227;-63
2023/01/21 05:24:28;;;;;;;2.90;2.80;;;;;;;0.17;89.57;95617.94;4294962;33;20206;-62
2023/01/21 05:26:54;;;;;;;2.67;2.47;;;;;;;0.14;89.85;95609.75;4303288;33;20190;-63
2023/01/21 05:29:20;;;;;;;2.58;2.45;;;;;;;0.14;90.26;95610.56;4271702;33;20270;-63
2023/01/21 05:31:47;;;;;;;3.93;3.63;;;;;;;0.21;89.86;95610.44;4312395;32;20272;-63
2023/01/21 05:34:14;;;;;;;4.07;3.80;;;;;;;-0.06;91.12;95610.81;4302640;33;20237;-63
2023/01/21 05:36:39;;;;;;;3.22;3.12;;;;;;;0.11;91.12;95604.97;4307908;32;20239;-63
2023/01/21 05:39:04;;;;;;;3.63;3.37;;;;;;;0.04;90.53;95607.66;4332812;32;20190;-63
2023/01/21 05:41:30;;;;;;;3.03;2.73;;;;;;;0.05;89.56;95605.84;4323588;32;20194;-63
2023/01/21 05:43:57;;;;;;;2.53;2.37;;;;;;;-0.18;89.17;95612.53;4306953;33;20189;-63
2023/01/21 05:46:23;;;;;;;1.62;1.62;;;;;;;-0.18;89.66;95611.75;4314704;32;20294;-63
2023/01/21 05:48:50;;;;;;;2.92;2.72;;;;;;;-0.07;89.83;95619.66;4313949;32;20268;-63
2023/01/21 05:51:17;;;;;;;1.95;1.90;;;;;;;0.02;88.64;95620.13;4317593;32;20186;-62
2023/01/21 05:53:43;;;;;;;1.10;1.10;;;;;;;-0.03;88.83;95628.63;4322998;32;20185;-62
2023/01/21 05:56:10;;;;;;;3.17;2.97;;;;;;;-0.12;89.86;95624.72;4341196;32;20177;-63
2023/01/21 05:58:36;;;;;;;2.33;2.22;;;;;;;-0.09;89.57;95626.09;4312595;32;20185;-62
2023/01/21 06:01:03;;;;;;;6.13;3.60;;;;;;;-0.07;88.52;95622.25;4317817;32;20199;-63
2023/01/21 06:03:29;;;;;;;2.10;2.00;;;;;;;-0.02;88.97;95629.41;4311255;33;20214;-62
2023/01/21 06:05:55;;;;;;;3.17;2.97;;;;;;;0.02;88.72;95627.94;4338893;32;20190;-62
2023/01/21 06:08:22;;;;;;;3.20;2.97;;;;;;;-0.16;88.52;95620.94;4330042;33;20183;-62
2023/01/21 06:10:51;;;;;;;2.10;2.05;;;;;;;-0.19;89.26;95631.81;4314207;32;20210;-62
2023/01/21 06:13:18;;;;;;;2.20;2.10;;;;;;;-0.22;89.41;95626.25;4309129;33;20235;-62
2023/01/21 06:15:44;;;;;;;1.83;1.73;;;;;;;-0.28;90.24;95624.50;4325788;32;20229;-62
2023/01/21 06:18:11;;;;;;;2.47;2.28;;;;;;;-0.11;90.42;95622.91;4343137;32;20220;-63
2023/01/21 06:20:37;;;;;;;3.17;2.97;;;;;;;-0.15;89.93;95627.75;4339445;32;20208;-63
2023/01/21 06:23:03;;;;;;;2.47;2.28;;;;;;;-0.22;90.20;95627.06;4317340;33;20219;-62
2023/01/21 06:25:30;;;;;;;2.30;2.20;;;;;;;-0.25;90.39;95637.91;4343922;32;20174;-63
2023/01/21 06:27:57;;;;;;;3.20;3.00;;;;;;;-0.09;89.86;95631.31;4330662;32;20182;-63
2023/01/21 06:30:24;;;;;;;4.20;4.00;;;;;;;-0.20;89.63;95640.63;4343472;32;20335;-62
2023/01/21 06:32:50;;;;;;;3.17;2.97;;;;;;;-0.31;90.30;95636.16;4313065;32;20281;-63
2023/01/21 06:35:17;;;;;;;2.72;2.62;;;;;;;-0.38;90.61;95645.84;4335754;32;20178;-63
2023/01/21 06:37:46;;;;;;;2.62;2.33;;;;;;;-0.26;90.26;95640.72;4320880;32;20225;-63
2023/01/21 06:40:12;;;;;;;2.30;2.15;;;;;;;-0.27;90.21;95649.56;4319556;32;20173;-62
2023/01/21 06:42:40;;;;;;;2.40;2.30;;;;;;;-0.20;89.81;95645.84;4321378;32;20227;-62
2023/01/21 06:45:07;;;;;;;1.37;1.37;;;;;;;-0.24;89.16;95647.31;4315292;32;20177;-62
2023/01/21 06:47:34;;;;;;;2.08;1.98;;;;;;;-0.28;89.16;95653.19;4338875;32;20221;-63
2023/01/21 06:49:59;;;;;;;1.40;1.30;;;;;;;-0.25;89.42;95648.34;4303785;32;20182;-67
2023/01/21 06:52:26;;;;;;;2.83;2.63;;;;;;;-0.20;89.82;95648.47;4283701;32;20186;-61
2023/01/21 06:54:52;;;;;;;5.93;2.75;;;;;;;-0.18;87.93;95653.44;4322019;32;20209;-62
2023/01/21 06:57:20;;;;;;;1.57;1.57;;;;;;;-0.51;88.65;95654.59;4314000;32;20260;-62
2023/01/21 06:59:47;;;;;;;2.03;1.98;;;;;;;-0.58;89.75;95651.25;4340783;32;20173;-62
2023/01/21 07:02:12;;;;;;;2.20;1.77;;;;;;;-0.56;89.27;95651.03;4327642;32;20268;-62
2023/01/21 07:04:38;;;;;;;2.63;2.50;;;;;;;-0.49;89.77;95659.59;4342461;32;20182;-62
2023/01/21 07:07:04;;;;;;;1.87;1.77;;;;;;;-0.46;89.67;95656.56;4343136;32;20239;-63
2023/01/21 07:09:29;;;;;;;2.17;2.07;;;;;;;-0.49;89.59;95662.22;4327142;32;20182;-62
2023/01/21 07:11:56;;;;;;;2.97;2.60;;;;;;;-0.56;89.50;95664.06;4325101;32;20235;-62
2023/01/21 07:14:21;;;;;;;2.03;2.03;;;;;;;-0.47;89.46;95666.19;4334896;32;20178;-63
2023/01/21 07:16:47;;;;;;;1.47;1.37;;;;;;;-0.45;89.07;95664.19;4325341;32;20190;-62
2023/01/21 07:19:14;;;;;;;9.50;3.42;;;;;;;-0.38;88.38;95669.31;4325635;32;20235;-62
2023/01/21 07:21:40;;;;;;;1.42;1.42;;;;;;;-0.39;88.57;95667.72;4338749;32;20293;-62
2023/01/21 07:24:07;;;;;;;1.60;1.50;;;;;;;-0.53;89.02;95666.25;4302741;33;20185;-62
2023/01/21 07:26:36;;;;;;;1.17;1.17;;;;;;;-0.51;89.27;95669.44;4327722;32;20200;-63
2023/01/21 07:29:03;;;;;;;1.73;1.67;;;;;;;-0.33;89.16;95669.47;4307480;33;20194;-63
2023/01/21 07:31:29;;;;;;;2.92;2.78;;;;;;;-0.33;88.97;95676.47;4321663;32;20185;-62
2023/01/21 07:33:56;;;;;;;2.97;2.80;;;;;;;-0.26;88.24;95672.81;4300260;33;20281;-62
2023/01/21 07:36:21;;;;;;;3.15;2.62;;;;;;;-0.13;88.45;95671.84;4317158;32;20213;-62
2023/01/21 07:38:48;;;;;;;2.07;1.87;;;;;;;-0.11;87.41;95680.25;4316834;33;20265;-62
2023/01/21 07:41:13;;;;;;;2.17;1.87;;;;;;;-0.44;87.43;95675.41;4318626;32;20218;-62
2023/01/21 07:43:41;;;;;;;3.80;3.50;;;;;;;-0.47;88.29;95679.22;4326891;32;20185;-62
2023/01/21 07:46:08;;;;;;;3.17;2.97;;;;;;;-0.43;88.46;95687.41;4323766;32;20229;-61
2023/01/21 07:48:33;;;;;;;0.90;0.90;;;;;;;-0.70;88.90;95684.25;4345222;32;20272;-64
2023/01/21 07:50:58;;;;;;;1.83;1.73;;;;;;;-0.62;88.38;95696.22;4323737;32;20217;-62
2023/01/21 07:53:26;;;;;;;2.85;2.12;;;;;;;-0.62;88.71;95688.41;4331565;32;20186;-61
2023/01/21 07:55:52;;;;;;;2.75;1.92;;;;;;;-0.73;89.64;95688.06;4325132;32;20249;-61
2023/01/21 07:58:19;;;;;;;6.60;2.17;;;;;;;-0.52;90.91;95693.91;4316005;32;20186;-60
2023/01/21 08:00:47;;;;;;;2.72;2.15;;;;;;;1.25;100.00;95685.63;4319388;32;20260;-60
2023/01/21 08:03:13;;;;;;;2.40;2.30;;;;;;;1.43;100.00;95689.19;4294277;33;20237;-60
2023/01/21 08:05:39;;;;;;;2.43;2.27;;;;;;;2.52;100.00;95677.84;4310510;32;20206;-60
2023/01/21 08:08:09;;;;;;;2.42;2.33;;;;;;;2.35;98.27;95680.41;4313514;32;20193;-60
2023/01/21 08:10:36;;;;;;;4.40;4.10;;;;;;;1.94;92.63;95672.78;4309299;33;20182;-60
2023/01/21 08:13:02;;;;;;;3.83;3.47;;;;;;;2.73;96.45;95676.38;4323376;32;20384;-60
2023/01/21 08:15:28;;;;;;;11.20;4.37;;;;;;;3.10;95.14;95679.41;4320507;32;20275;-60
2023/01/21 08:17:54;;;;;;;4.13;3.73;;;;;;;3.66;96.94;95673.19;4305744;33;20409;-60
2023/01/21 08:20:20;;;;;;;4.53;3.20;;;;;;;3.52;93.05;95677.19;4296144;33;20225;-60
2023/01/21 08:22:46;;;;;;;2.63;2.30;;;;;;;3.86;93.23;95667.41;4284210;33;20190;-60
2023/01/21 08:25:12;;;;;;;2.43;2.27;;;;;;;3.59;87.93;95680.41;4297610;33;20297;-60
2023/01/21 08:27:38;;;;;;;2.93;2.77;;;;;;;3.77;91.69;95676.72;4290381;33;20193;-60
2023/01/21 08:30:05;;;;;;;4.23;4.03;;;;;;;3.78;89.32;95675.69;4294654;33;20233;-60
2023/01/21 08:32:33;;;;;;;4.13;3.83;;;;;;;3.84;89.23;95681.81;4291730;33;20350;-65
2023/01/21 08:35:01;;;;;;;3.70;3.50;;;;;;;3.79;90.09;95685.16;4295572;33;20297;-60
2023/01/21 08:37:28;;;;;;;3.00;2.80;;;;;;;3.53;87.69;95685.84;4319812;33;20282;-60
2023/01/21 08:39:53;;;;;;;2.60;2.40;;;;;;;3.67;87.31;95687.09;4313845;33;20301;-60
2023/01/21 08:42:20;;;;;;;3.23;3.03;;;;;;;3.76;87.71;95689.06;4313230;33;20275;-60
2023/01/21 08:44:45;;;;;;;2.77;2.57;;;;;;;4.02;89.31;95687.56;4280317;33;20190;-60
2023/01/21 08:47:13;;;;;;;4.07;3.77;;;;;;;3.96;87.25;95687.75;4315657;33;20300;-60
2023/01/21 08:49:39;;;;;;;4.03;3.60;;;;;;;3.64;85.79;95690.97;4296931;33;20208;-60
2023/01/21 08:52:05;;;;;;;3.97;3.67;;;;;;;3.94;88.68;95693.25;4297470;33;20294;-60
2023/01/21 08:54:31;;;;;;;2.13;2.03;;;;;;;3.73;87.41;95694.81;4299007;33;20286;-61
2023/01/21 08:56:57;;;;;;;2.90;2.80;;;;;;;3.61;85.98;95695.91;4303495;33;20198;-60
2023/01/21 08:59:27;;;;;;;13.17;4.33;;;;;;;3.73;86.00;95697.44;4309207;33;20449;-60
2023/01/21 09:01:55;;;;;;;3.90;3.67;;;;;;;4.16;87.13;95701.13;4301990;33;20422;-60
2023/01/21 09:04:20;;;;;;;3.80;3.60;;;;;;;4.29;87.29;95706.03;4291171;33;20288;-60
2023/01/21 09:06:47;;;;;;;4.50;3.77;;;;;;;4.31;85.21;95709.22;4313645;33;20405;-60
2023/01/21 09:09:14;;;;;;;3.40;3.20;;;;;;;4.49;84.20;95702.87;4288076;33;20183;-60
2023/01/21 09:11:41;;;;;;;4.33;4.03;;;;;;;4.27;80.25;95707.31;4291804;33;20306;-60
2023/01/21 09:14:08;;;;;;;4.67;4.37;;;;;;;4.32;83.08;95702.94;4323528;32;20270;-61
2023/01/21 09:16:36;;;;;;;4.27;3.47;;;;;;;4.26;84.66;95705.72;4340793;32;20360;-60
2023/01/21 09:19:02;;;;;;;3.07;2.87;;;;;;;3.73;80.48;95707.12;4325929;32;20289;-60
2023/01/21 09:21:28;;;;;;;4.37;3.97;;;;;;;3.68;84.97;95699.19;4318288;32;20270;-61
2023/01/21 09:23:55;;;;;;;4.53;3.10;;;;;;;2.81;77.58;95704.03;4327917;32;20181;-61
2023/01/21 09:26:24;;;;;;;3.00;2.87;;;;;;;1.59;76.89;95715.44;4322407;32;20435;-61
2023/01/21 09:28:58;;;;;;;4.17;3.57;;;;;;;1.19;79.54;95725.72;4333711;32;20353;-61
2023/01/21 09:31:25;;;;;;;3.57;3.27;;;;;;;0.82;81.44;95719.06;4327238;32;20290;-61
2023/01/21 09:33:56;;;;;;;3.33;3.23;;;;;;;0.50;83.94;95723.69;4313999;32;25950;-61
2023/01/21 09:36:27;;;;;;;4.10;3.83;;;;;;;0.52;85.07;95716.44;4323051;32;20286;-61
2023/01/21 09:38:53;;;;;;;2.80;2.70;;;;;;;0.35;85.33;95718.84;4307307;32;20308;-61
2023/01/21 09:41:29;;;;;;;12.50;2.23;;;;;;;0.42;85.24;95721.34;4309364;32;20278;-61
2023/01/21 09:44:01;;;;;;;2.00;1.93;;;;;;;0.39;84.70;95712.19;4315018;32;20256;-61
2023/01/21 09:46:49;;;;;;;5.20;3.97;;;;;;;0.33;85.47;95723.47;4303741;33;20337;-61
2023/01/21 09:49:23;;;;;;;2.67;2.42;;;;;;;0.44;85.72;95719.31;4315308;32;20213;-61
2023/01/21 09:52:19;;;;;;;4.45;2.25;;;;;;;0.49;85.67;95714.25;4319953;32;20189;-61
2023/01/21 09:54:44;;;;;;;2.12;2.12;;;;;;;0.31;84.93;95723.69;4325718;32;20182;-61
2023/01/21 09:57:40;;;;;;;4.20;2.70;;;;;;;0.21;85.21;95718.19;4322195;32;20190;-61
2023/01/21 10:00:41;;;;;;;3.70;3.40;;;;;;;0.14;85.89;95719.28;4319234;32;20186;-61
2023/01/21 10:03:34;;;;;;;3.03;2.87;;;;;;;0.10;86.36;95715.53;4316556;32;20201;-61
2023/01/21 10:06:08;;;;;;;2.83;2.65;;;;;;;0.10;87.13;95721.53;4292211;33;20187;-61
2023/01/21 10:08:46;;;;;;;3.87;2.67;;;;;;;0.09;87.89;95721.75;4315504;32;20229;-61
2023/01/21 10:11:29;;;;;;;2.58;2.37;;;;;;;0.14;86.99;95717.47;4329751;32;20195;-61
2023/01/21 10:13:57;;;;;;;1.62;1.60;;;;;;;-0.01;87.33;95720.47;4316191;32;20183;-61
2023/01/21 10:17:05;;;;;;;2.67;2.58;;;;;;;0.17;87.27;95716.25;4306391;33;20194;-61
2023/01/21 10:19:49;;;;;;;2.72;2.53;;;;;;;0.22;85.83;95705.94;4285212;33;20265;-66
2023/01/21 10:22:21;;;;;;;1.50;1.42;;;;;;;0.23;85.57;95704.94;4303730;32;20236;-61
2023/01/21 10:25:19;;;;;;;3.42;3.12;;;;;;;0.10;86.89;95715.53;4320703;32;20200;-61
2023/01/21 10:27:44;;;;;;;1.35;1.25;;;;;;;0.21;86.52;95715.56;4317394;33;20224;-61
2023/01/21 10:30:51;;;;;;;3.17;2.97;;;;;;;0.19;86.29;95701.19;4315259;33;20220;-61
2023/01/21 10:33:24;;;;;;;1.62;1.52;;;;;;;0.33;86.03;95710.44;4310465;32;20190;-65
2023/01/21 10:36:06;;;;;;;1.62;1.52;;;;;;;0.32;85.04;95711.44;4292360;32;20241;-64
2023/01/21 10:38:59;;;;;;;1.70;1.70;;;;;;;0.22;85.42;95713.75;4305331;33;20185;-66
2023/01/21 10:41:27;;;;;;;2.28;1.83;;;;;;;0.19;86.03;95712.41;4312112;32;20274;-62
2023/01/21 10:44:17;;;;;;;1.48;1.42;;;;;;;0.18;85.95;95712.63;4270873;33;20207;-62
2023/01/21 10:46:51;;;;;;;1.52;1.52;;;;;;;0.05;86.81;95708.34;4244529;33;20229;-62
2023/01/21 10:49:52;;;;;;;1.58;1.42;;;;;;;0.21;85.82;95697.31;4286623;33;20189;-62
2023/01/21 10:52:56;;;;;;;1.98;1.67;;;;;;;0.46;85.43;95699.81;4272586;33;20189;-62
2023/01/21 10:55:50;;;;;;;1.52;1.50;;;;;;;0.30;85.28;95703.03;4272849;33;20260;-62
2023/01/21 10:58:30;;;;;;;2.47;1.55;;;;;;;0.14;86.30;95703.66;4243123;33;20191;-63
2023/01/21 11:00:59;;;;;;;2.03;1.92;;;;;;;0.12;86.70;95695.25;4309743;33;20216;-62
2023/01/21 11:03:32;;;;;;;2.67;2.58;;;;;;;0.42;86.49;95703.88;4296019;33;20324;-62
2023/01/21 11:06:03;;;;;;;2.20;2.05;;;;;;;0.51;84.79;95694.75;4313471;32;20248;-63
2023/01/21 11:08:29;;;;;;;1.85;1.83;;;;;;;0.42;85.52;95695.25;4308519;33;20217;-62
2023/01/21 11:10:55;;;;;;;2.17;2.10;;;;;;;0.45;85.02;95700.03;4302712;32;20208;-62
2023/01/21 11:13:21;;;;;;;3.40;3.13;;;;;;;0.42;85.40;95693.44;4253997;33;20192;-63
2023/01/21 11:15:52;;;;;;;1.58;1.58;;;;;;;0.69;84.63;95692.09;4297679;32;20201;-62
2023/01/21 11:18:30;;;;;;;2.12;2.03;;;;;;;0.63;84.74;95692.97;4309412;33;20299;-63
2023/01/21 11:20:59;;;;;;;1.92;1.87;;;;;;;0.73;84.65;95697.66;4321115;32;20217;-63
2023/01/21 11:23:34;;;;;;;3.03;2.92;;;;;;;0.58;85.18;95685.03;4298885;32;20253;-63
2023/01/21 11:26:05;;;;;;;1.92;1.92;;;;;;;0.75;84.92;95692.22;4316914;32;20190;-63
2023/01/21 11:28:31;;;;;;;2.17;2.10;;;;;;;0.74;84.41;95690.62;4303027;33;20288;-62
2023/01/21 11:31:11;;;;;;;3.60;2.92;;;;;;;0.84;82.81;95689.06;4300942;33;20232;-63
2023/01/21 11:33:38;;;;;;;2.10;2.10;;;;;;;0.64;84.30;95683.31;4327916;32;20185;-63
2023/01/21 11:36:16;;;;;;;1.65;1.65;;;;;;;0.75;84.67;95673.97;4310667;32;20190;-63
2023/01/21 11:38:43;;;;;;;2.30;2.12;;;;;;;0.49;85.58;95675.91;4325598;32;20195;-63
2023/01/21 11:41:09;;;;;;;1.40;1.40;;;;;;;0.77;86.06;95677.16;4315484;32;20196;-63
2023/01/21 11:43:42;;;;;;;3.67;3.35;;;;;;;0.71;85.89;95671.00;4323055;32;20200;-63
2023/01/21 11:46:32;;;;;;;1.48;1.37;;;;;;;0.76;85.05;95676.34;4304102;32;20190;-63
2023/01/21 11:49:07;;;;;;;1.60;1.55;;;;;;;0.76;84.88;95675.53;4270285;33;20241;-63
2023/01/21 11:51:33;;;;;;;3.80;3.47;;;;;;;0.80;84.61;95667.06;4275358;33;20204;-63
2023/01/21 11:54:19;;;;;;;1.67;1.67;;;;;;;0.77;85.18;95671.91;4326845;32;20189;-63
2023/01/21 11:56:56;;;;;;;3.72;2.45;;;;;;;0.69;86.01;95671.22;4328633;32;20214;-63
2023/01/21 11:59:44;;;;;;;2.40;2.30;;;;;;;0.49;85.79;95668.06;4325362;32;20185;-63